Categorie :
Classement au checkpoint Arrivee - Vielle-Aure (hors pénalités)
OrdreCoureur [Dossard] Club DptCatHeureTemps cumulé
1Franck Gilleron [952] V1H29/08 14:42:289:40:28
2Bruno Bareilles [687] V1H29/08 14:49:539:47:53
3Oscar Perez De Nanclares [693] SH29/08 15:08:3410:06:35
4Albert Gine Cid [975] SH29/08 15:38:2910:36:29
5Yves Moreilhon [696] V1H29/08 15:49:0210:47:03
6Benjamin Mauries [908] SH29/08 15:57:1310:55:13
7Benoît Dubin [937] SH29/08 15:57:1410:55:14
8Sebastien Buffard [929] SH29/08 16:06:0311:04:04
9Didier Resseguier [706] V1H29/08 16:09:2411:07:24
10Alain Aubrion [983] V1H29/08 16:09:5011:07:50
11Frédéric Cazalet [920] SH29/08 16:24:5111:22:51
12Gine Cid Javier [775] SH29/08 16:39:0011:37:00
13Philippe Maupome [666] V1H29/08 16:39:4411:37:44
14Géraldine Aubrion [984] SF29/08 16:40:4111:38:41
15Ximun Galanena [864] V1H29/08 16:43:4711:41:47
16Philippe Iturria [956] V1H29/08 16:43:5411:41:54
17Thierry Lorenzi [621] SH29/08 16:55:2011:53:21
18Goikoetxea Gurrutxaga Iñaki [665] V1H29/08 16:55:2211:53:22
19Patrick Etcheverry [704] SH29/08 17:03:2212:01:23
20Philippe Carricart [786] V1H29/08 17:03:3112:01:31
21Philippe Bricault [629] V1H29/08 17:16:5812:14:58
22Laurent Barthélémy [890] SH29/08 17:17:0112:15:02
23Christophe Raffel [939] V1H29/08 17:22:3112:20:32
24Dominique Alain Laporte [944] V1H29/08 17:25:5312:23:53
25Rene Irubetagoyena [955] V1H29/08 17:31:4612:29:47
26Raphael Derand [711] SH29/08 17:34:1012:32:10
27Pierre Vedere [846] V1H29/08 17:34:2212:32:22
28Lionel Cathelin [833] SH29/08 17:34:4812:32:48
29Jean Marie Soulard [780] V1H29/08 17:35:0512:33:05
30Charles Hoarau [935] V2H29/08 17:37:1112:35:12
31David Rodriguez [730] SH29/08 17:40:2212:38:23
32Martine Volay [698] V1F29/08 17:41:0312:39:03
33Philippe Rabier [778] V1H29/08 17:46:4812:44:49
34Frédéric Laxalde [681] V1H29/08 17:49:4712:47:47
35Jacques Andre Couret [800] V1H29/08 17:53:1412:51:15
36Bernard Schoutheer [723] V1H29/08 17:55:2112:53:21
37Jérôme Viviand [968] SH29/08 17:55:2212:53:22
38Jean Lambert [820] V1H29/08 17:55:4512:53:46
39Jean Sayerce Pon [814] V2H29/08 17:56:4512:54:46
40Xavier Ybanez [754] SH29/08 17:59:0012:57:01
41Robert Point [776] V1H29/08 18:04:2413:02:25
42Frederic Saint Esteven [858] SH29/08 18:04:2713:02:28
43Nicolas Charrier [844] SH29/08 18:09:1413:07:15
44Simon Evrard [752] SH29/08 18:13:2113:11:22
45Fabrice Loussouarn [913] V1H29/08 18:14:1713:12:18
46Bernard Rouzies [880] V2H29/08 18:15:2513:13:25
47Pierre Lassaga [972] V1H29/08 18:16:0113:14:02
48Eric Tilhac [664] V1H29/08 18:17:3413:15:34
49Joel Borderies [724] V1H29/08 18:30:0313:28:03
50Nelly Lotis [970] SF29/08 18:31:0513:29:06
51Aitor Berra [663] SH29/08 18:31:2813:29:29
52Daniel Lagarde [934] V2H29/08 18:32:1713:30:17
53Serrat Juncà Narcís [870] V2H29/08 18:32:2413:30:25
54Jose Manuel Tarazaga Teruel [965] V1H29/08 18:33:2813:31:29
55Thierry Urrutia [879] SH29/08 18:34:5213:32:52
56Jean-François Perronnet [894] SH29/08 18:35:5813:33:59
57Jean-Paul Etchenique [843] V1H29/08 18:36:3713:34:38
58Thierry Harocarene [661] SH29/08 18:41:3613:39:36
59Benat Sein [662] V1H29/08 18:41:3713:39:38
60Jerome Depierre [785] SH29/08 18:42:1913:40:20
61Jean-Philippe Abadie [795] SH29/08 18:42:2413:40:25
62Unai Urrutikoetxea [836] SH29/08 18:48:0613:46:07
63Jean-Pierre Bourdeu [878] V2H29/08 18:49:3613:47:37
64Gilbert Malgouyres [852] V1H29/08 18:49:4013:47:40
65Patrick Pardies [850] V1H29/08 18:49:4213:47:43
66Thierry Despagnet [866] SH29/08 18:51:0613:49:07
67Jean-Luc Lalanne [868] V1H29/08 18:51:0813:49:09
68Thierry Royer [822] V1H29/08 18:51:1113:49:12
69Fathia Benito [933] V1F29/08 18:54:3113:52:32
70Charlotte Flambeaux [971] SF29/08 18:54:3413:52:34
71Felipe Rodriguez Nuero [667] V1H29/08 18:59:0213:57:02
72Michel Arnaud [622] V1H29/08 19:01:5914:00:00
73Philippe Bisquey [865] V1H29/08 19:05:2414:03:24
74Willy Rospars [702] SH29/08 19:05:3914:03:39
75Pierre Martel [673] V3H29/08 19:07:3214:05:33
76Jacques Eychenne [805] V2H29/08 19:07:3614:05:36
77Christophe Vedry [801] V1H29/08 19:07:3914:05:39
78Philippe Moiroux [802] V1H29/08 19:07:4214:05:43
79Alexandre Junger [729] SH29/08 19:08:4214:06:42
80Raphaël Peyres [764] SH29/08 19:08:5514:06:56
81Nicolas Ludeau [771] V1H29/08 19:08:5614:06:57
82Fabienne Vedere [847] V1F29/08 19:10:3814:08:39
83Bruno Le Guen [604] V2H29/08 19:13:2014:11:21
84Laurent Durand [969] V1H29/08 19:15:1914:13:20
85Bernard Lorcy [746] V2H29/08 19:15:3514:13:35
86Emmanuel Lamarle [739] SH29/08 19:15:4214:13:42
87Jean-Christophe Kiburse [784] V1H29/08 19:19:0114:17:02
88Jerome Perrier [904] SH29/08 19:21:5714:19:57
89Manuel Dos Santos [876] V2H29/08 19:23:0214:21:02
90Philippe Jouslin [772] V2H29/08 19:23:1214:21:13
91Camille Batisse [897] SF29/08 19:23:4714:21:48
92Fabien Capoulade [903] V1H29/08 19:24:2314:22:23
93Jacques Mathe [951] V3H29/08 19:26:0014:24:01
94Thierry Bernabeu [654] V1H29/08 19:26:0714:24:08
95Maryline Pévergne [660] V1F29/08 19:27:2914:25:30
96Patrice Flage [964] V2H29/08 19:37:3314:35:33
97Nicolas Mazas [677] V1H29/08 19:43:1414:41:15
98Remi Savoie [830] V1H29/08 19:43:5714:41:58
99Romain Bonafos [697] SH29/08 19:44:2214:42:23
100Stephane Houbre [792] SH29/08 19:44:4414:42:45
101Jérôme Proust [873] SH29/08 19:44:5614:42:57
102Patxi Sallaberry [925] SH29/08 19:45:1714:43:18
103Philippe Liege [676] V2H29/08 19:46:0314:44:04
104Mickaël Rasolofoson [982] V1H29/08 19:47:1314:45:14
105Henri Etcheverry [808] V1H29/08 19:47:2714:45:28
106Patrick Lavaud [877] V1H29/08 19:48:4414:46:45
107Emmanuel Maillet [895] SH29/08 19:50:0414:48:05
108Nicolas Forget [828] V1H29/08 19:50:2914:48:29
109Inigo Zurbanobeaskoetxea Urrutsa [837] SH29/08 19:52:1114:50:11
110Patrick Louin [905] V1H29/08 19:53:2914:51:29
111Joao Da Silva [793] V1H29/08 19:54:0214:52:03
112Philippe Maura [815] V1H29/08 19:54:1314:52:13
113Luc Bonneau [626] V1H29/08 19:54:5514:52:56
114Jean-Jacques Godron [950] V1H29/08 19:57:2914:55:30
115Christian Mainix [891] V4H29/08 19:58:2614:56:26
116Maithe Escale [799] V2F29/08 19:59:1714:57:17
117J.Claude Arnaudin [819] V2H29/08 19:59:2514:57:26
118Didier Turquin [774] V1H29/08 19:59:2914:57:29
119Adriaan Daem [694] SH29/08 20:00:0614:58:07
120Stéphane Savoldelli [721] SH29/08 20:04:4915:02:50
121Gerard Jaeger [851] V2H29/08 20:04:5015:02:51
122Christian Aznar [981] SH29/08 20:05:0015:03:00
123Jean Pascal Saplana [947] SH29/08 20:10:3915:08:39
124Cedric Perez [948] SH29/08 20:10:4115:08:42
125Lohann Lelievre [644] SH29/08 20:12:0015:10:01
126Paco Murall Tallada [961] V1H29/08 20:13:4115:11:42
127Benat Larronde [923] V1H29/08 20:20:0015:18:00
128Patrick Vidal [945] V1H29/08 20:22:0015:20:00
129Remi Sempere [835] SH29/08 20:24:5115:22:52
130Daniel Fo [924] V1H29/08 20:25:2315:23:24
131Franck Lacombe [857] SH29/08 20:26:0315:24:03
132Jean-Paul Andre [642] V1H29/08 20:26:5015:24:51
133Patrice Coustalat [898] V1H29/08 20:31:2115:29:21
134Didier Durrieu [856] SH29/08 20:31:4315:29:44
135Eric Giorgi [678] V1H29/08 20:32:1715:30:18
136Roland Jalbert [732] V2H29/08 20:34:2715:32:28
137F,Javier Lillo Ramos [670] V2H29/08 20:35:1515:33:16
138Ludovic Papon [883] V1H29/08 20:36:1415:34:14
139Veronique Angeli [809] V2F29/08 20:38:0315:36:03
140David Mayaud [854] V1H29/08 20:38:2915:36:29
141Maurice Martinez [861] SH29/08 20:42:0515:40:06
142Bruno Bebiot [867] V1H29/08 20:42:0815:40:09
143Christophe Dewynter [684] V1H29/08 20:43:1315:41:14
144Patrick Queguiner [953] V1H29/08 20:45:0815:43:09
145Francis Luce [849] V1H29/08 20:45:2215:43:22
146Jean-Luc Bechade [960] V1H29/08 20:45:4015:43:40
147Etienne Kervarrec [750] V2H29/08 20:46:3315:44:33
148Loïc Goulet [796] V1H29/08 20:48:3515:46:36
149Frederic Fouillat [797] SH29/08 20:48:4315:46:44
150Claire Goyet [710] SF29/08 20:51:0915:49:09
151Cedric Heluin [976] SH29/08 20:51:2215:49:23
152Florian Rodrigues [917] SH29/08 20:51:3115:49:32
153Gilles Dondaine [709] SH29/08 20:56:0415:54:04
154Patrick Bonnet [973] V1H29/08 20:59:1215:57:13
155Olivier Generaud [616] SH29/08 20:59:3915:57:39
156Thomas Quincey [625] SH29/08 20:59:4015:57:41
157Leonor Anto [751] V1F29/08 21:01:4115:59:42
158Rafael Poyatos [692] SH29/08 21:01:4315:59:43
159Marin Mora Ana Maria [832] SF29/08 21:01:4515:59:45
160Jean Marc Girard [893] V1H29/08 21:06:5016:04:51
161Olivier Bertin [863] V1H29/08 21:08:3616:06:37
162Gonzalez Núñez Florentino [979] SH29/08 21:11:1316:09:13
163Julien Harymbat [926] SH29/08 21:13:2616:11:27
164Sylvain Dalier [744] SH29/08 21:14:0516:12:06
165Gilles Armand [624] V2H29/08 21:14:3116:12:32
166François Mazelin [749] V2H29/08 21:14:5216:12:53
167Josée Cumbo [650] V1F29/08 21:16:4416:14:45
168Karen Courcelle [651] SF29/08 21:16:4616:14:47
169Gerard Masclet [966] V2H29/08 21:19:5216:17:53
170Sylvain Law Koune [674] SH29/08 21:19:5916:18:00
171Christian Raoul [959] V2H29/08 21:26:0516:24:05
172Frederic Faltrauer [628] V1H29/08 21:26:5416:24:54
173Pierre Alain Michel [777] V3H29/08 21:35:5716:33:57
174Marc Acloque [831] V2H29/08 21:35:5916:34:00
175Nicolas Savary [671] SH29/08 21:38:3916:36:40
176Pierre-Laurent Gelé [631] SH29/08 21:38:4216:36:43
177Iban Iturain Eguskisa [838] SH29/08 21:46:3916:44:39
178Philippe Le Gendre [713] V2H29/08 21:46:4116:44:41
179Philippe Leroy [690] V2H29/08 21:46:4816:44:48
180Philippe Laruelle [900] V1H29/08 21:48:0916:46:10
181Radouane Boulacheb [911] SH29/08 21:51:4916:49:49
182Christophe Le Jeune [647] SH29/08 21:56:2416:54:24
183Jean-François Delannoy [914] V2H29/08 21:59:0216:57:03
184Théodore Cozzika [769] SH29/08 21:59:2416:57:25
185Michel Renaudeau [607] V1H29/08 22:00:2616:58:26
186Jean-Pierre Mégias [655] V1H29/08 22:03:4317:01:43
187Jean Jacques Crayssac [804] V1H29/08 22:03:5517:01:55
188Cedric Castaignet [909] SH29/08 22:04:1817:02:18
189Sébastien Cousseau [940] SH29/08 22:04:5917:02:59
190Pascal Pavard [606] SH29/08 22:05:3617:03:36
191Karine Pignon [919] V1F29/08 22:06:5417:04:54
192Remy Viot [757] V1H29/08 22:06:5917:04:59
193Sébastien Chamayou [825] SH29/08 22:07:0717:05:08
194Vincent Bonnet [689] V1H29/08 22:08:4517:06:45
195Gilles Montgaillard [853] SH29/08 22:09:0017:07:01
196Christiane Le Cerf [871] V2F29/08 22:09:2617:07:27
197Christophe Lenguin [601] SH29/08 22:09:5117:07:52
198Nicolas Jestin [603] SH29/08 22:10:0517:08:06
199Pierre Toulouze [617] SH29/08 22:10:2317:08:24
200Olivier Roques [623] SH29/08 22:10:3617:08:37
201Fabien Lahoche [936] SH29/08 22:10:5117:08:51
202Christian Mallol [928] V2H29/08 22:10:5417:08:54
203Thierry Astruc [781] V1H29/08 22:10:5817:08:58
204Rene Faucheux [717] SH29/08 22:12:1317:10:14
205Olivier Le Gal [669] SH29/08 22:12:5917:10:59
206Clément Minot [656] SH29/08 22:14:2217:12:22
207Stéphane Cau [770] SH29/08 22:14:2717:12:28
208Jean-Jacques Le Gall [845] V1H29/08 22:23:4917:21:49
209Philippe Benetti [872] V1H29/08 22:23:5417:21:55
210Daniel Niveault [817] V2H29/08 22:27:1317:25:14
211Claude Leonardi [613] V4H29/08 22:31:5617:29:56
212Juan Del Valle Moran [978] SH29/08 22:32:2517:30:25
213Renaud Amiard [685] SH29/08 22:33:1917:31:20
214Sandrine Taisson [682] SF29/08 22:35:5317:33:54
215David Le Borgne [922] SH29/08 22:36:1317:34:13
216Christian Pierdet [821] V2H29/08 22:41:0317:39:04
217Luc Durand [649] V2H29/08 22:41:3617:39:37
218Patrick Delrocq [722] V1H29/08 22:43:5217:41:52
219Bruno Louges [896] SH29/08 22:49:4817:47:48
220Emmanuel Jan [932] SH29/08 22:51:0417:49:04
221Joan Forés Aguiló [986] V1H29/08 22:53:4117:51:41
222Olivier Cosneau [812] SH29/08 22:53:5617:51:56
223Jean-Pierre Quérec [618] V2H29/08 22:55:1417:53:15
224Yvan Arnaud [659] SH29/08 22:57:0017:55:00
225Francis Couderc [609] V1H29/08 22:57:0317:55:03
226Jean-Gilles Batisse [916] V2H29/08 23:04:5518:02:56
227Edouard Bauto [753] V3H29/08 23:09:3718:07:37
228Frederic Vaucelle [763] V1H29/08 23:09:5018:07:50
229Patrice Vinet [668] V1H29/08 23:17:1818:15:19
230Gerard Pouil [740] V2H29/08 23:18:5718:16:58
231Joël Boileux [918] V2H29/08 23:21:3818:19:39
232Stéphane Cosson [648] SH29/08 23:22:5218:20:52
233Eric Brun [688] V1H29/08 23:26:0518:24:05
234Marc Bonnamy [602] V2H29/08 23:26:1418:24:15
235Magali Estienne [798] V1F29/08 23:26:5118:24:52
236Jean Le Brun [639] V3H29/08 23:27:1818:25:19
237Paul Cartier [810] V1H29/08 23:29:2318:27:23
238Didier Lepoutre [901] V2H29/08 23:29:3118:27:32
239Alain Vintenat [884] V2H29/08 23:34:2918:32:29
240Yann Chaigne [646] V1H29/08 23:37:3618:35:37
241Jordi Ortiz Sanchis [733] V1H29/08 23:41:0518:39:05
242Javier Perez Tous [658] V1H29/08 23:41:2218:39:23
243Patrick Le Ray [766] V2H29/08 23:43:3618:41:36
244Jaume Amiel Picola [725] V3H29/08 23:44:3718:42:37
245Pierre Calmettes [605] V2H29/08 23:46:4118:44:42
246Gaëtan Vigouroux [731] V1H29/08 23:53:0218:51:02
247David Amann [641] SH29/08 23:53:0518:51:05
248Arnaud Chaulet [789] SH29/08 23:53:2318:51:24
249Stephane Lincontang [791] SH29/08 23:53:2518:51:26
250Veronique Charlier [759] V1F29/08 23:53:4018:51:41
251Samuel Baury [842] SH29/08 23:53:5018:51:50
252Loris Flandin [834] SH29/08 23:53:5318:51:53
253Marc-Olivier Dhuicq [645] SH30/08 00:00:2518:58:26
254Didier Duphil [680] V2H30/08 00:04:2219:02:22
255Gerard Marcel-Venault [827] V3H30/08 00:09:3419:07:34
256Romain Alb [608] SH30/08 00:14:4019:12:41
257Marie-Louise Zahrer [886] SF30/08 00:17:3919:15:39
258Nicolas Philippe [887] SH30/08 00:17:4019:15:41
259Joel Filleau [941] V2H30/08 00:18:3919:16:39
260José Gonçalves [915] SH30/08 00:18:4219:16:43
261Rosa Carles [727] SF30/08 00:22:4819:20:48
262Marga Estorach [691] SF30/08 00:23:0319:21:04
263Auré Calvet Jesús [738] SH30/08 00:23:0719:21:08
264Laurent Haustrate [783] SH30/08 00:25:0219:23:03
265Michel Lapeyre [748] SH30/08 00:25:0519:23:05
266Catherine Bernard [630] V1F30/08 00:26:5419:24:54
267Clément Bats [912] SH30/08 00:35:1419:33:14
268Pierrick Paboeuf [967] V1H30/08 00:40:4419:38:44
269Marc Ghesquiere [632] V2H30/08 00:41:4319:39:43
270Fernando Castrillo [610] V1H30/08 01:02:4820:00:48
271Marti Cartoixa Brusca [657] V2H30/08 01:20:5720:18:57
272Christine Francois [760] V2F30/08 01:31:3020:29:31
273Odile Brown [794] V1F30/08 01:34:1420:32:15
274Fabrice Filleur [672] SH30/08 01:34:2020:32:20
275Bertrand Ouin [949] V2H30/08 01:34:2320:32:24
276Véronique Dewynter [683] V1F30/08 01:36:0020:34:00
277Christian Macé [930] V2H30/08 01:36:0320:34:04
278Alexandre Saffroy [962] SH30/08 01:37:4820:35:48
279Noel Brivois [788] V3H30/08 01:38:3320:36:33
280Jean-Pierre Biscaichipy [816] V1H30/08 01:40:4720:38:48
281Nicole Charbonnier [634] V2F30/08 01:43:2420:41:25
282Bruno Charbonnier [633] V1H30/08 01:43:3120:41:32
283Roland Biron [862] V2H30/08 02:18:4821:16:49
284Gisèle Roy [839] V2F30/08 02:21:3721:19:37
285Philippe Garraud [840] V1H30/08 02:21:4121:19:41
286Jean-Luc Chevalier [714] V1H30/08 02:30:0121:28:02
287Johann Violas [885] SH30/08 02:30:0921:28:09
288Nicolas Chevalier [790] SH30/08 02:30:1521:28:16
289Gérald Huet [715] SH30/08 02:30:1821:28:19
290Günter Manthey [813] V3H30/08 02:50:0921:48:09
291Daniel Alfonso Cembranos [716] SH30/08 03:17:5522:15:55
292Marie Joe Tellier [762] V2F30/08 03:32:5122:30:51
293Pierrick Nouaille [761] V1H30/08 03:32:5322:30:54
294Baptiste Stevant [640] V3H30/08 03:32:5822:30:58
295Loïc Caudal [638] V2H30/08 03:33:0122:31:01
296Stephane Chaidron [882] V1H30/08 03:39:1522:37:15
297Alain Rysman [881] SH30/08 03:39:1822:37:19
298Joel Marinozzi [910] V1H30/08 03:39:2222:37:23
299Marie Lasnier [614] V3F30/08 03:50:4722:48:48
300Valery Auchere [907] V1H30/08 03:50:5422:48:54
301Domínguez Luzón Manuel [745] V1H30/08 03:53:1022:51:10
302Monique Lorcy [747] V2F30/08 04:36:4223:34:43
303Marie Scrive [823] V3F30/08 04:49:3723:47:38
304Sandrine Grymonprez [824] V1F30/08 04:49:4823:47:48